Time;durP1;ratioP1;P1;durP2;ratioP2;P2;SDS_P1;SDS_P2;PMS_P1;PMS_P2;Temp;Humidity;BMP_temperature;BMP_pressure;BME280_temperature;BME280_humidity;BME280_pressure;Samples;Min_cycle;Max_cycle;Signal;HPM_P1;HPM_P2
2023/02/12 00:00:56;;;;;;;65.20;59.88;;;-2.70;95.80;;;;;;4170925;28;20051;-88
2023/02/12 00:03:16;;;;;;;60.25;55.47;;;-2.60;96.00;;;;;;4165820;28;20048;-88
2023/02/12 00:05:38;;;;;;;63.83;58.67;;;-2.50;96.20;;;;;;4158549;28;20048;-88
2023/02/12 00:07:57;;;;;;;65.10;59.33;;;-2.50;95.80;;;;;;4163241;28;20095;-88
2023/02/12 00:10:17;;;;;;;62.05;57.25;;;-2.60;95.90;;;;;;4169251;28;20173;-88
2023/02/12 00:12:37;;;;;;;66.05;60.88;;;-2.70;96.10;;;;;;4163487;28;20092;-88
2023/02/12 00:14:56;;;;;;;70.35;63.90;;;-2.80;96.30;;;;;;4171249;28;20095;-88
2023/02/12 00:17:16;;;;;;;63.70;58.30;;;-2.80;96.60;;;;;;4162948;28;20060;-88
2023/02/12 00:19:36;;;;;;;66.80;61.13;;;-2.80;96.50;;;;;;4176013;28;20051;-88
2023/02/12 00:21:56;;;;;;;56.80;52.85;;;-2.70;96.80;;;;;;4165784;28;20084;-88
2023/02/12 00:24:16;;;;;;;53.42;49.60;;;-2.70;96.10;;;;;;4178859;28;20079;-88
2023/02/12 00:26:36;;;;;;;51.20;47.75;;;-2.70;95.50;;;;;;4180715;28;20043;-88
2023/02/12 00:28:56;;;;;;;51.95;48.45;;;-2.70;95.30;;;;;;4158838;28;20284;-88
2023/02/12 00:31:23;;;;;;;62.55;57.90;;;-2.70;95.50;;;;;;4163789;28;20072;-88
2023/02/12 00:33:43;;;;;;;60.35;55.85;;;-2.70;95.80;;;;;;4163238;28;20272;-88
2023/02/12 00:36:04;;;;;;;63.90;59.20;;;-2.60;96.10;;;;;;4176170;28;20059;-88
2023/02/12 00:38:24;;;;;;;63.58;58.33;;;-2.60;96.00;;;;;;4163552;28;20410;-88
2023/02/12 00:40:44;;;;;;;63.75;58.25;;;-2.70;96.20;;;;;;4165286;28;20056;-88
2023/02/12 00:43:04;;;;;;;73.82;67.47;;;-2.70;96.60;;;;;;4175552;28;20129;-88
2023/02/12 00:45:25;;;;;;;80.97;73.03;;;-2.80;96.80;;;;;;4166045;28;20065;-88
2023/02/12 00:47:45;;;;;;;72.88;66.47;;;-2.80;97.00;;;;;;4181414;28;20131;-88
2023/02/12 00:50:05;;;;;;;63.85;58.35;;;-2.80;97.20;;;;;;4165375;28;20052;-88
2023/02/12 00:52:25;;;;;;;58.38;53.78;;;-2.80;96.90;;;;;;4162641;28;20414;-89
2023/02/12 00:54:45;;;;;;;61.72;56.65;;;-2.90;96.90;;;;;;4168261;28;20040;-88
2023/02/12 00:57:05;;;;;;;67.72;62.30;;;-2.90;97.20;;;;;;4172515;28;20056;-89
2023/02/12 00:59:25;;;;;;;62.00;57.28;;;-3.00;97.10;;;;;;4166698;28;20052;-88
2023/02/12 01:01:45;;;;;;;65.13;60.17;;;-3.00;97.00;;;;;;4180580;28;20065;-88
2023/02/12 01:04:05;;;;;;;65.30;59.38;;;-3.00;97.10;;;;;;4171544;28;20402;-88
2023/02/12 01:06:25;;;;;;;66.50;61.13;;;-3.10;97.40;;;;;;4177031;28;20048;-88
2023/02/12 01:08:45;;;;;;;61.67;57.10;;;-3.20;97.60;;;;;;4165708;28;20139;-88
2023/02/12 01:11:05;;;;;;;62.45;57.67;;;-3.20;97.80;;;;;;4178475;28;20103;-88
2023/02/12 01:13:26;;;;;;;64.68;59.92;;;-3.30;97.70;;;;;;4164418;28;20084;-88
2023/02/12 01:15:46;;;;;;;61.22;56.70;;;-3.20;98.00;;;;;;4167363;28;20049;-88
2023/02/12 01:18:07;;;;;;;63.25;58.42;;;-3.20;98.40;;;;;;4163004;28;20229;-88
2023/02/12 01:20:27;;;;;;;60.90;56.10;;;-3.30;98.10;;;;;;4164555;28;20092;-88
2023/02/12 01:22:47;;;;;;;62.22;57.53;;;-3.20;97.90;;;;;;4163440;28;20045;-88
2023/02/12 01:25:07;;;;;;;69.13;63.17;;;-3.20;97.90;;;;;;4167813;28;20052;-87
2023/02/12 01:27:27;;;;;;;61.42;56.20;;;-3.20;97.60;;;;;;4167044;28;20092;-88
2023/02/12 01:29:47;;;;;;;64.97;60.13;;;-3.10;97.30;;;;;;4172992;28;20080;-88
2023/02/12 01:32:07;;;;;;;63.40;58.50;;;-3.10;97.50;;;;;;4179014;28;20095;-88
2023/02/12 01:34:27;;;;;;;65.47;60.22;;;-3.00;97.10;;;;;;4166755;28;20036;-88
2023/02/12 01:36:47;;;;;;;70.55;64.07;;;-2.90;97.80;;;;;;4179431;28;20067;-88
2023/02/12 01:39:07;;;;;;;67.03;61.00;;;-3.00;97.80;;;;;;4180041;28;20071;-88
2023/02/12 01:41:35;;;;;;;93.88;77.68;;;-3.00;98.00;;;;;;4169800;28;20056;-88
2023/02/12 01:44:08;;;;;;;76.10;68.82;;;-3.10;97.80;;;;;;4162667;28;20045;-88
2023/02/12 01:46:28;;;;;;;71.82;65.22;;;-3.30;98.20;;;;;;4167515;28;20371;-88
2023/02/12 01:48:47;;;;;;;79.07;71.18;;;-3.40;98.40;;;;;;4165442;28;20071;-88
2023/02/12 01:51:13;;;;;;;84.22;76.70;;;-3.50;99.00;;;;;;4171685;28;20108;-88
2023/02/12 01:53:41;;;;;;;75.35;68.90;;;-3.60;99.40;;;;;;4168173;28;20343;-89
2023/02/12 01:56:02;;;;;;;74.75;68.35;;;-3.70;99.60;;;;;;4168849;28;20184;-88
2023/02/12 01:58:25;;;;;;;75.15;68.90;;;-3.70;99.70;;;;;;4165866;28;20091;-88
2023/02/12 02:00:45;;;;;;;68.07;62.75;;;-3.70;99.80;;;;;;4164754;28;20068;-88
2023/02/12 02:03:05;;;;;;;68.93;63.28;;;-3.70;99.70;;;;;;4171802;28;20053;-88
2023/02/12 02:05:40;;;;;;;67.07;61.92;;;-3.60;99.90;;;;;;4163074;28;20371;-88
2023/02/12 02:08:00;;;;;;;63.45;58.40;;;-3.60;99.40;;;;;;4163908;28;20048;-88
2023/02/12 02:10:19;;;;;;;64.38;59.80;;;-3.60;99.20;;;;;;4164172;28;20045;-88
2023/02/12 02:15:18;;;;;;;56.90;53.15;;;-3.40;99.10;;;;;;4164980;28;20386;-88
2023/02/12 02:17:59;;;;;;;52.92;49.78;;;-3.30;99.10;;;;;;4181625;28;20048;-89
2023/02/12 02:20:38;;;;;;;55.28;52.08;;;-3.20;98.80;;;;;;4160705;28;20237;-89
2023/02/12 02:23:26;;;;;;;56.35;52.53;;;-3.20;98.50;;;;;;4163144;28;20045;-88
2023/02/12 02:26:20;;;;;;;52.15;48.50;;;-3.20;98.30;;;;;;4165402;28;20391;-88
2023/02/12 02:28:52;;;;;;;56.13;52.75;;;-3.10;98.40;;;;;;4164637;28;20327;-88
2023/02/12 02:31:31;;;;;;;56.15;53.05;;;-3.20;97.60;;;;;;4165782;28;20300;-88
2023/02/12 02:34:09;;;;;;;60.28;56.35;;;-3.20;98.00;;;;;;4176679;28;20064;-88
2023/02/12 02:37:01;;;;;;;55.30;51.75;;;-3.30;98.00;;;;;;4162888;28;20106;-88
2023/02/12 02:39:33;;;;;;;58.83;55.42;;;-3.30;98.60;;;;;;4146949;28;20052;-88
2023/02/12 02:41:58;;;;;;;56.95;53.70;;;-3.20;98.10;;;;;;4176036;28;20100;-88
2023/02/12 02:44:33;;;;;;;57.72;54.00;;;-3.30;97.80;;;;;;4177084;28;20166;-88
2023/02/12 02:46:56;;;;;;;62.72;58.15;;;-3.40;97.80;;;;;;4172418;28;20279;-88
2023/02/12 02:49:22;;;;;;;68.53;62.47;;;-3.50;98.70;;;;;;4163857;28;20057;-88
2023/02/12 02:51:46;;;;;;;71.88;65.65;;;-3.70;99.40;;;;;;4163415;28;20045;-88
2023/02/12 02:54:24;;;;;;;72.45;66.30;;;-3.80;99.90;;;;;;4177356;28;20041;-88
2023/02/12 02:56:47;;;;;;;71.80;65.72;;;-3.90;99.90;;;;;;4172134;28;20044;-88
2023/02/12 02:59:10;;;;;;;;;;;-3.80;99.90;;;;;;4164335;28;20300;-88
2023/02/12 03:01:37;;;;;;;62.20;57.83;;;-3.90;99.90;;;;;;4164881;28;19924;-88
2023/02/12 03:04:11;;;;;;;61.30;57.22;;;-3.90;99.90;;;;;;4163657;28;20174;-88
2023/02/12 03:06:55;;;;;;;62.10;57.67;;;-3.80;99.70;;;;;;4171764;28;20048;-88
2023/02/12 03:09:24;;;;;;;60.97;56.70;;;-3.80;99.50;;;;;;4163905;28;20069;-87
2023/02/12 03:11:45;;;;;;;63.95;59.30;;;-3.60;99.90;;;;;;4160797;28;20041;-88
2023/02/12 03:14:18;;;;;;;66.25;60.72;;;-3.60;99.60;;;;;;4163032;28;20041;-88
2023/02/12 03:16:45;;;;;;;55.30;52.00;;;-3.50;99.90;;;;;;4163081;28;20366;-88
2023/02/12 03:19:10;;;;;;;57.83;54.22;;;-3.40;98.60;;;;;;4176805;28;20458;-88
2023/02/12 03:22:08;;;;;;;55.92;52.22;;;-3.30;98.90;;;;;;4164873;28;20081;-88
2023/02/12 03:24:41;;;;;;;61.72;57.15;;;-3.20;98.60;;;;;;4107896;28;20077;-88
2023/02/12 03:27:21;;;;;;;58.70;54.10;;;-3.40;98.40;;;;;;4122525;28;20037;-89
2023/02/12 03:29:41;;;;;;;62.90;58.15;;;-3.40;99.30;;;;;;4121307;28;20062;-88
2023/02/12 03:32:11;;;;;;;63.50;58.47;;;-3.50;99.40;;;;;;4117605;28;20122;-88
2023/02/12 03:35:15;;;;;;;68.78;63.30;;;-3.70;99.90;;;;;;4122875;28;20153;-88
2023/02/12 03:37:48;;;;;;;72.75;65.95;;;-3.80;99.90;;;;;;4117271;28;20053;-88
2023/02/12 03:40:20;;;;;;;66.80;60.92;;;-4.10;99.90;;;;;;4118453;28;20065;-88
2023/02/12 03:42:49;;;;;;;68.90;63.85;;;-4.20;99.90;;;;;;4116757;28;20042;-88
2023/02/12 03:45:25;;;;;;;68.70;63.70;;;-4.20;99.90;;;;;;4102738;28;20286;-88
2023/02/12 03:47:52;;;;;;;62.22;57.38;;;-4.30;99.90;;;;;;4110864;28;20253;-88
2023/02/12 03:50:15;;;;;;;62.88;58.15;;;-4.40;99.90;;;;;;4115002;28;20058;-87
2023/02/12 03:52:35;;;;;;;64.70;60.17;;;-4.50;99.90;;;;;;4114726;28;20089;-88
2023/02/12 03:54:55;;;;;;;68.10;62.72;;;-4.70;99.90;;;;;;4117055;28;20526;-88
2023/02/12 03:57:29;;;;;;;64.45;59.85;;;-4.80;99.90;;;;;;4101864;28;20070;-88
2023/02/12 03:59:50;;;;;;;61.40;56.67;;;-4.80;99.90;;;;;;4175976;28;20072;-88
2023/02/12 04:02:09;;;;;;;66.10;61.50;;;-4.90;99.90;;;;;;4161657;28;20085;-88
2023/02/12 04:04:30;;;;;;;61.95;57.88;;;-4.90;99.90;;;;;;4160427;28;20052;-88
2023/02/12 04:06:52;;;;;;;60.38;56.22;;;-4.90;99.90;;;;;;4164211;28;20087;-88
2023/02/12 04:09:12;;;;;;;56.97;53.50;;;-4.80;99.90;;;;;;4168525;28;20044;-88
2023/02/12 04:12:10;;;;;;;63.22;58.65;;;-4.80;99.90;;;;;;4163600;28;20100;-88
2023/02/12 04:14:49;;;;;;;56.47;53.05;;;-4.60;99.90;;;;;;4162487;28;20256;-88
2023/02/12 04:17:26;;;;;;;55.92;52.65;;;-4.40;99.90;;;;;;4164082;28;20049;-88
2023/02/12 04:20:01;;;;;;;58.85;55.38;;;-4.40;99.90;;;;;;4162534;28;20052;-87
2023/02/12 04:22:44;;;;;;;55.03;51.75;;;-4.40;99.90;;;;;;4168482;28;20065;-87
2023/02/12 04:25:16;;;;;;;55.03;51.83;;;-4.30;99.90;;;;;;4160952;28;20053;-88
2023/02/12 04:27:43;;;;;;;57.00;53.90;;;-4.30;99.90;;;;;;4170047;28;20363;-88
2023/02/12 04:30:23;;;;;;;58.13;54.88;;;-4.30;99.90;;;;;;4163415;28;20052;-88
2023/02/12 04:32:47;;;;;;;56.15;53.13;;;-4.30;99.90;;;;;;4170320;28;20080;-89
2023/02/12 04:35:33;;;;;;;57.47;54.15;;;-4.30;99.90;;;;;;4161048;28;20061;-88
2023/02/12 04:38:14;;;;;;;58.22;54.30;;;-4.40;99.90;;;;;;4165813;28;20056;-88
2023/02/12 04:40:34;;;;;;;68.03;62.45;;;-4.40;99.90;;;;;;4168485;28;20315;-88
2023/02/12 04:42:54;;;;;;;69.25;63.92;;;-4.30;99.90;;;;;;4162944;28;20044;-88
2023/02/12 04:45:24;;;;;;;60.25;56.22;;;-4.30;99.90;;;;;;4177059;28;20049;-88
2023/02/12 04:47:45;;;;;;;57.78;54.28;;;-4.30;99.90;;;;;;4163730;28;20144;-88
2023/02/12 04:50:06;;;;;;;59.13;54.70;;;-4.30;99.90;;;;;;4159793;28;20045;-88
2023/02/12 04:52:25;;;;;;;56.55;52.95;;;-4.40;99.90;;;;;;4163161;28;20053;-88
2023/02/12 04:54:45;;;;;;;57.55;54.00;;;-4.30;99.90;;;;;;4161369;28;20045;-88
2023/02/12 04:57:05;;;;;;;55.40;51.75;;;-4.30;99.90;;;;;;4157427;28;20053;-88
2023/02/12 04:59:25;;;;;;;58.83;55.15;;;-4.20;99.90;;;;;;4163395;28;20072;-88
2023/02/12 05:01:45;;;;;;;55.72;51.90;;;-4.30;99.90;;;;;;4176392;28;20076;-88
2023/02/12 05:04:07;;;;;;;61.00;56.20;;;-4.40;99.90;;;;;;4158601;28;20407;-88
2023/02/12 05:06:29;;;;;;;61.13;56.85;;;-4.60;99.90;;;;;;4161650;28;20121;-87
2023/02/12 05:08:48;;;;;;;63.15;58.65;;;-4.70;99.90;;;;;;4169109;28;20080;-88
2023/02/12 05:11:09;;;;;;;61.78;57.58;;;-5.00;99.90;;;;;;4162986;28;20065;-88
2023/02/12 05:13:29;;;;;;;53.97;50.83;;;-4.80;99.90;;;;;;4169795;28;20052;-88
2023/02/12 05:15:49;;;;;;;56.88;53.05;;;-4.70;99.90;;;;;;4162604;28;20087;-88
2023/02/12 05:18:09;;;;;;;60.92;57.00;;;-4.60;99.90;;;;;;4168426;28;20359;-88
2023/02/12 05:20:29;;;;;;;63.10;58.50;;;-4.70;99.90;;;;;;4164548;28;20356;-88
2023/02/12 05:22:52;;;;;;;56.95;53.38;;;-4.80;99.90;;;;;;4178308;28;20103;-88
2023/02/12 05:25:12;;;;;;;58.90;55.08;;;-4.80;99.90;;;;;;4161859;28;20072;-88
2023/02/12 05:27:33;;;;;;;57.05;52.90;;;-4.70;99.90;;;;;;4172685;28;20052;-87
2023/02/12 05:29:53;;;;;;;60.00;56.20;;;-4.60;99.90;;;;;;4165980;28;20068;-88
2023/02/12 05:32:14;;;;;;;57.63;53.97;;;-4.60;99.90;;;;;;4163009;28;20057;-89
2023/02/12 05:34:34;;;;;;;56.58;52.88;;;-4.70;99.90;;;;;;4177473;28;20155;-88
2023/02/12 05:36:54;;;;;;;55.90;52.47;;;-4.70;99.90;;;;;;4164566;28;20052;-88
2023/02/12 05:39:14;;;;;;;59.42;55.53;;;-4.70;99.90;;;;;;4164900;28;20084;-88
2023/02/12 05:41:34;;;;;;;60.70;56.85;;;-4.60;99.90;;;;;;4166700;28;20160;-88
2023/02/12 05:43:54;;;;;;;59.97;55.97;;;-4.60;99.90;;;;;;4165439;28;20041;-88
2023/02/12 05:46:15;;;;;;;63.28;59.08;;;-4.70;99.90;;;;;;4168940;28;20040;-88
2023/02/12 05:48:35;;;;;;;58.50;54.42;;;-4.80;99.90;;;;;;4174030;28;20049;-89
2023/02/12 05:51:04;;;;;;;61.72;57.15;;;-4.80;99.90;;;;;;4162492;28;20080;-88
2023/02/12 05:53:25;;;;;;;58.47;54.72;;;-4.80;99.90;;;;;;4171610;28;20117;-88
2023/02/12 05:55:45;;;;;;;63.45;59.25;;;-4.90;99.90;;;;;;4161224;28;20049;-88
2023/02/12 05:58:05;;;;;;;64.57;59.97;;;-4.90;99.90;;;;;;4164631;28;20227;-88
2023/02/12 06:00:25;;;;;;;62.15;57.72;;;-4.90;99.90;;;;;;4168774;28;20251;-87
2023/02/12 06:02:45;;;;;;;62.53;58.65;;;-5.00;99.90;;;;;;4168532;28;20053;-88
2023/02/12 06:05:05;;;;;;;62.13;57.47;;;-5.10;99.90;;;;;;4165819;28;20049;-88
2023/02/12 06:07:25;;;;;;;63.50;59.25;;;-5.00;99.90;;;;;;4166138;28;20081;-89
2023/02/12 06:09:45;;;;;;;64.25;60.13;;;-5.00;99.90;;;;;;4165661;28;20044;-88
2023/02/12 06:12:05;;;;;;;55.78;51.80;;;-4.90;99.90;;;;;;4177437;28;20052;-88
2023/02/12 06:14:25;;;;;;;60.28;56.22;;;-4.90;99.90;;;;;;4178002;28;20083;-88
2023/02/12 06:16:48;;;;;;;58.85;55.00;;;-4.80;99.90;;;;;;4163596;28;20149;-88
2023/02/12 06:19:09;;;;;;;52.87;49.77;;;-4.80;99.90;;;;;;4170979;28;20057;-88
2023/02/12 06:21:29;;;;;;;60.30;56.65;;;-4.80;99.90;;;;;;4178224;28;20103;-88
2023/02/12 06:23:51;;;;;;;66.60;61.58;;;-4.70;99.90;;;;;;4167778;28;20083;-88
2023/02/12 06:26:11;;;;;;;63.28;58.85;;;-4.80;99.90;;;;;;4176943;28;20403;-88
2023/02/12 06:28:31;;;;;;;61.42;57.17;;;-4.90;99.90;;;;;;4163226;28;20075;-88
2023/02/12 06:30:51;;;;;;;59.63;55.92;;;-5.00;99.90;;;;;;4170256;28;20056;-87
2023/02/12 06:33:12;;;;;;;60.42;56.28;;;-5.00;99.90;;;;;;4165695;28;20053;-88
2023/02/12 06:35:34;;;;;;;55.72;52.08;;;-5.10;99.90;;;;;;4177520;28;20114;-88
2023/02/12 06:37:54;;;;;;;60.50;56.42;;;-5.10;99.90;;;;;;4164575;28;20152;-88
2023/02/12 06:40:13;;;;;;;58.13;54.72;;;-4.90;99.90;;;;;;4159008;28;20080;-88
2023/02/12 06:42:34;;;;;;;51.83;49.17;;;-4.80;99.90;;;;;;4162837;28;20044;-88
2023/02/12 06:44:54;;;;;;;48.40;45.75;;;-4.90;99.90;;;;;;4168016;28;20057;-88
2023/02/12 06:47:13;;;;;;;53.92;51.22;;;-4.90;99.90;;;;;;4169243;28;20057;-88
2023/02/12 06:49:34;;;;;;;53.13;50.53;;;-5.00;99.90;;;;;;4177003;28;20057;-88
2023/02/12 06:51:54;;;;;;;53.15;50.63;;;-5.00;99.90;;;;;;4167138;28;20060;-88
2023/02/12 06:54:16;;;;;;;54.97;52.08;;;-4.90;99.90;;;;;;4161619;28;20048;-88
2023/02/12 06:56:37;;;;;;;53.67;50.67;;;-4.90;99.90;;;;;;4160589;28;20113;-88
2023/02/12 06:58:59;;;;;;;54.30;51.33;;;-4.80;99.90;;;;;;4163496;28;20244;-88
2023/02/12 07:01:23;;;;;;;54.47;51.72;;;-4.90;99.90;;;;;;4164317;28;20049;-88
2023/02/12 07:03:55;;;;;;;49.78;47.42;;;-4.80;99.90;;;;;;4164301;28;20077;-88
2023/02/12 07:06:18;;;;;;;50.78;48.28;;;-4.70;99.90;;;;;;4169993;28;20271;-88
2023/02/12 07:08:38;;;;;;;49.95;47.72;;;-4.70;99.90;;;;;;4163510;28;20120;-88
2023/02/12 07:10:58;;;;;;;52.97;50.47;;;-4.60;99.90;;;;;;4162718;28;20053;-88
2023/02/12 07:13:18;;;;;;;49.65;47.28;;;-4.50;99.90;;;;;;4164738;28;20076;-88
2023/02/12 07:15:39;;;;;;;50.67;48.38;;;-4.50;99.90;;;;;;4167404;28;20347;-88
2023/02/12 07:17:59;;;;;;;54.63;51.47;;;-4.50;99.90;;;;;;4168643;28;20044;-88
2023/02/12 07:20:19;;;;;;;52.45;49.65;;;-4.40;99.90;;;;;;4176738;28;20291;-88
2023/02/12 07:22:39;;;;;;;54.08;51.22;;;-4.50;99.90;;;;;;4169290;28;20115;-88
2023/02/12 07:24:59;;;;;;;52.60;49.72;;;-4.40;99.90;;;;;;4163050;28;20069;-88
2023/02/12 07:27:19;;;;;;;60.95;57.10;;;-4.30;99.90;;;;;;4165880;28;20072;-87
2023/02/12 07:29:39;;;;;;;61.70;57.92;;;-4.10;99.90;;;;;;4175423;28;20276;-88
2023/02/12 07:31:59;;;;;;;58.30;53.95;;;-3.90;99.90;;;;;;4164626;28;20052;-88
2023/02/12 07:34:19;;;;;;;57.67;53.65;;;-3.70;99.90;;;;;;4163139;28;20092;-87
2023/02/12 07:36:39;;;;;;;55.10;51.65;;;-3.60;99.90;;;;;;4178716;28;20414;-88
2023/02/12 07:39:00;;;;;;;59.88;55.90;;;-3.50;99.90;;;;;;4165331;28;20121;-87
2023/02/12 07:41:26;;;;;;;58.97;55.30;;;-3.30;99.90;;;;;;4175646;28;20052;-88
2023/02/12 07:43:48;;;;;;;54.22;50.83;;;-2.70;99.90;;;;;;4165159;28;20068;-88
2023/02/12 07:46:15;;;;;;;50.22;47.22;;;-2.20;99.90;;;;;;4161728;28;20092;-88
2023/02/12 07:48:35;;;;;;;51.70;48.95;;;-2.30;99.90;;;;;;4159359;28;20237;-88
2023/02/12 07:50:55;;;;;;;53.33;50.25;;;-2.30;99.90;;;;;;4166380;28;20161;-87
2023/02/12 07:53:15;;;;;;;55.45;51.97;;;-2.30;99.90;;;;;;4168756;28;20075;-88
2023/02/12 07:55:34;;;;;;;72.00;65.25;;;-2.30;99.90;;;;;;4162731;28;20049;-88
2023/02/12 07:57:54;;;;;;;74.07;66.97;;;-2.50;99.90;;;;;;4169391;28;20056;-88
2023/02/12 08:00:15;;;;;;;77.03;69.22;;;-2.60;99.90;;;;;;4174919;28;20256;-89
2023/02/12 08:02:35;;;;;;;94.13;83.07;;;-2.60;99.90;;;;;;4175831;28;20076;-89
2023/02/12 08:04:56;;;;;;;97.40;86.80;;;-2.50;99.90;;;;;;4177514;28;20064;-89
2023/02/12 08:07:17;;;;;;;89.60;79.93;;;-2.60;99.90;;;;;;4164684;28;20268;-89
2023/02/12 08:09:36;;;;;;;87.47;78.43;;;-2.60;99.90;;;;;;4163190;28;20068;-89
2023/02/12 08:11:56;;;;;;;106.53;86.88;;;-2.50;99.90;;;;;;4162483;28;20108;-88
2023/02/12 08:14:18;;;;;;;101.05;81.88;;;-2.40;99.90;;;;;;4162225;28;20041;-89
2023/02/12 08:16:40;;;;;;;79.70;71.55;;;-2.20;99.90;;;;;;4161703;28;20048;-88
2023/02/12 08:19:00;;;;;;;72.15;65.97;;;-2.30;99.90;;;;;;4164440;28;20152;-89
2023/02/12 08:21:37;;;;;;;74.97;67.75;;;-2.20;99.90;;;;;;4159326;28;20076;-91
2023/02/12 08:23:58;;;;;;;74.20;67.50;;;-2.20;99.90;;;;;;4163286;28;20394;-89
2023/02/12 08:26:22;;;;;;;63.95;59.33;;;-2.10;99.90;;;;;;4163355;28;20061;-89
2023/02/12 08:28:48;;;;;;;60.30;56.10;;;-2.00;99.90;;;;;;4169386;28;20076;-88
2023/02/12 08:31:12;;;;;;;57.90;53.33;;;-1.90;99.90;;;;;;4166542;28;20044;-88
2023/02/12 08:33:33;;;;;;;72.32;64.72;;;-1.70;99.90;;;;;;4165001;28;20056;-88
2023/02/12 08:36:14;;;;;;;54.95;50.50;;;-1.60;99.90;;;;;;4162747;28;20290;-88
2023/02/12 08:38:34;;;;;;;51.42;47.85;;;-1.40;99.90;;;;;;4167081;28;20236;-88
2023/02/12 08:40:55;;;;;;;49.03;46.05;;;-1.30;99.10;;;;;;4168864;28;20065;-88
2023/02/12 08:43:14;;;;;;;50.05;46.60;;;-1.30;98.60;;;;;;4170419;28;20048;-88
2023/02/12 08:45:35;;;;;;;44.38;41.55;;;-1.30;98.80;;;;;;4176730;28;20108;-87
2023/02/12 08:47:55;;;;;;;38.05;36.45;;;-1.10;98.60;;;;;;4163584;28;20056;-87
2023/02/12 08:50:14;;;;;;;46.75;44.17;;;-1.00;97.10;;;;;;4161401;28;20103;-87
2023/02/12 08:52:35;;;;;;;45.17;41.95;;;-0.80;96.90;;;;;;4167265;28;20044;-87
2023/02/12 08:54:55;;;;;;;36.53;34.78;;;-0.60;97.20;;;;;;4162286;28;20080;-87
2023/02/12 08:57:15;;;;;;;34.95;33.45;;;-0.50;96.80;;;;;;4173495;28;20435;-87
2023/02/12 08:59:35;;;;;;;36.28;34.83;;;-0.30;96.40;;;;;;4163297;28;20096;-87
2023/02/12 09:01:55;;;;;;;35.20;33.10;;;-0.20;96.20;;;;;;4169503;28;20151;-87
2023/02/12 09:04:26;;;;;;;30.55;29.02;;;0.10;95.40;;;;;;4175168;28;20056;-87
2023/02/12 09:06:47;;;;;;;20.67;19.58;;;0.20;94.80;;;;;;4163153;28;20076;-87
2023/02/12 09:09:07;;;;;;;20.23;18.88;;;0.40;94.70;;;;;;4165856;28;20037;-87
2023/02/12 09:11:30;;;;;;;17.60;16.10;;;0.60;94.00;;;;;;4162014;28;20315;-87
2023/02/12 09:13:53;;;;;;;18.73;16.83;;;0.90;93.70;;;;;;4170282;28;20363;-87
2023/02/12 09:16:17;;;;;;;16.17;15.02;;;1.10;93.30;;;;;;4180718;28;20053;-87
2023/02/12 09:18:41;;;;;;;15.30;14.18;;;1.20;92.70;;;;;;4176949;28;20104;-88
2023/02/12 09:21:07;;;;;;;25.35;22.92;;;1.40;92.80;;;;;;4172560;28;20083;-87
2023/02/12 09:23:27;;;;;;;20.10;18.55;;;1.50;92.50;;;;;;4181926;28;20044;-87
2023/02/12 09:25:47;;;;;;;17.88;16.75;;;1.60;92.60;;;;;;4164811;28;20044;-87
2023/02/12 09:28:09;;;;;;;12.77;12.30;;;1.70;91.90;;;;;;4168953;28;20268;-87
2023/02/12 09:30:29;;;;;;;16.58;15.38;;;1.80;90.60;;;;;;4165500;28;20053;-87
2023/02/12 09:32:49;;;;;;;19.35;18.08;;;1.90;91.30;;;;;;4171422;28;20441;-87
2023/02/12 09:35:11;;;;;;;12.57;12.15;;;2.00;91.20;;;;;;4163067;28;20048;-87
2023/02/12 09:37:31;;;;;;;12.98;12.48;;;2.10;90.90;;;;;;4170729;28;20048;-87
2023/02/12 09:39:51;;;;;;;17.35;16.00;;;2.20;91.30;;;;;;4168174;28;20232;-87
2023/02/12 09:42:36;;;;;;;16.92;15.63;;;2.30;90.90;;;;;;4165956;28;20068;-87
2023/02/12 09:45:16;;;;;;;26.08;22.58;;;2.50;90.00;;;;;;4180727;28;20048;-87
2023/02/12 09:47:58;;;;;;;17.60;15.80;;;2.90;91.10;;;;;;4164072;28;20129;-87
2023/02/12 09:50:35;;;;;;;25.08;19.55;;;3.30;91.30;;;;;;4166105;28;20068;-87
2023/02/12 09:52:57;;;;;;;21.20;18.13;;;3.90;91.40;;;;;;4163282;28;20169;-87
2023/02/12 09:55:18;;;;;;;40.28;27.50;;;4.10;90.00;;;;;;4165929;28;20096;-87
2023/02/12 09:57:39;;;;;;;58.85;36.78;;;4.40;87.80;;;;;;4169255;28;20044;-86
2023/02/12 10:00:13;;;;;;;48.63;31.73;;;4.30;86.60;;;;;;4167848;28;20052;-86
2023/02/12 10:02:38;;;;;;;35.22;25.42;;;4.40;86.90;;;;;;4165185;28;20084;-86
2023/02/12 10:04:58;;;;;;;38.15;24.67;;;4.80;90.10;;;;;;4161033;28;20387;-87
2023/02/12 10:07:42;;;;;;;45.30;29.90;;;5.70;88.70;;;;;;4164301;28;20060;-87
2023/02/12 10:10:38;;;;;;;44.72;30.85;;;5.60;84.60;;;;;;4178736;28;20080;-88
2023/02/12 10:13:04;;;;;;;49.25;30.33;;;6.00;83.30;;;;;;4163529;28;20296;-87
2023/02/12 10:15:38;;;;;;;35.55;26.20;;;5.80;82.90;;;;;;4171509;28;20407;-87
2023/02/12 10:18:20;;;;;;;22.00;19.85;;;5.80;82.40;;;;;;4166766;28;20364;-87
2023/02/12 10:20:49;;;;;;;26.83;22.40;;;6.00;82.20;;;;;;4176933;28;20383;-87
2023/02/12 10:23:44;;;;;;;24.95;21.60;;;6.20;82.10;;;;;;4175698;28;20079;-87
2023/02/12 10:26:28;;;;;;;19.52;17.70;;;6.40;81.00;;;;;;4171235;28;20063;-87
2023/02/12 10:28:50;;;;;;;17.55;16.08;;;6.50;79.70;;;;;;4166031;28;20044;-88
2023/02/12 10:31:22;;;;;;;16.35;14.20;;;6.70;80.20;;;;;;4166782;28;20040;-88
2023/02/12 10:33:45;;;;;;;13.35;12.30;;;7.20;82.40;;;;;;4179723;28;20055;-88
2023/02/12 10:36:16;;;;;;;15.50;14.35;;;7.40;76.80;;;;;;4159749;28;20121;-88
2023/02/12 10:38:41;;;;;;;14.95;13.77;;;7.40;76.30;;;;;;4165376;28;20051;-88
2023/02/12 10:41:01;;;;;;;19.15;17.30;;;7.50;75.80;;;;;;4168239;28;20079;-88
2023/02/12 10:43:21;;;;;;;19.65;17.75;;;7.70;75.00;;;;;;4168894;28;20045;-88
2023/02/12 10:45:42;;;;;;;16.42;15.13;;;7.90;75.50;;;;;;4173446;28;20048;-88
2023/02/12 10:48:07;;;;;;;19.48;17.65;;;8.10;74.70;;;;;;4162068;28;20076;-88
2023/02/12 10:50:50;;;;;;;24.02;21.67;;;8.30;74.40;;;;;;4160967;28;20109;-88
2023/02/12 10:53:19;;;;;;;16.67;15.38;;;8.50;73.50;;;;;;4162449;28;20052;-88
2023/02/12 10:55:39;;;;;;;16.17;14.93;;;8.80;72.80;;;;;;4161649;28;20044;-88
2023/02/12 10:58:01;;;;;;;14.50;13.30;;;9.00;72.20;;;;;;4165834;28;20044;-90
2023/02/12 11:00:37;;;;;;;16.55;15.15;;;9.10;70.80;;;;;;4158356;28;20124;-93
2023/02/12 11:03:10;;;;;;;16.52;15.13;;;9.40;70.60;;;;;;4162122;28;20053;-93
2023/02/12 11:05:33;;;;;;;9.45;8.85;;;9.70;69.30;;;;;;4180381;28;20386;-92
2023/02/12 11:07:56;;;;;;;9.15;8.75;;;10.30;67.90;;;;;;4171382;28;20088;-93
2023/02/12 11:10:27;;;;;;;14.15;13.15;;;10.80;64.30;;;;;;4163612;28;20061;-93
2023/02/12 11:12:48;;;;;;;8.30;7.93;;;11.20;65.20;;;;;;4172562;28;20113;-92
2023/02/12 11:15:26;;;;;;;8.98;8.48;;;11.60;64.60;;;;;;4172789;28;20053;-93
2023/02/12 11:17:59;;;;;;;7.95;7.55;;;11.90;66.90;;;;;;4176923;28;20044;-88
2023/02/12 11:20:30;;;;;;;5.22;4.80;;;12.40;67.00;;;;;;4169214;28;20059;-89
2023/02/12 11:23:01;;;;;;;5.38;5.28;;;12.20;59.50;;;;;;4167715;28;20107;-88
2023/02/12 11:26:17;;;;;;;4.90;4.60;;;12.10;61.40;;;;;;4162112;28;20052;-88
2023/02/12 11:28:37;;;;;;;5.68;5.28;;;12.30;63.50;;;;;;4181300;28;20063;-88
2023/02/12 11:30:59;;;;;;;4.35;4.15;;;12.80;59.10;;;;;;4164611;28;20041;-88
2023/02/12 11:33:24;;;;;;;4.47;4.38;;;12.30;58.10;;;;;;4177160;28;20404;-88
2023/02/12 11:35:57;;;;;;;3.22;3.13;;;12.50;57.80;;;;;;4163941;28;20097;-88
2023/02/12 11:38:27;;;;;;;3.88;3.67;;;12.60;56.00;;;;;;4170783;28;20049;-89
2023/02/12 11:40:47;;;;;;;3.13;3.03;;;13.20;59.20;;;;;;4163216;28;20041;-88
2023/02/12 11:43:13;;;;;;;4.10;3.90;;;14.10;61.60;;;;;;4170645;28;20109;-88
2023/02/12 11:45:55;;;;;;;3.63;3.40;;;14.10;57.70;;;;;;4164825;28;20105;-89
2023/02/12 11:48:17;;;;;;;4.43;4.32;;;13.40;58.60;;;;;;4173275;28;20084;-88
2023/02/12 11:50:38;;;;;;;5.53;5.32;;;13.70;58.00;;;;;;4177717;28;20048;-88
2023/02/12 11:53:06;;;;;;;3.30;3.10;;;13.60;56.10;;;;;;4163390;28;20045;-89
2023/02/12 11:55:30;;;;;;;4.50;4.40;;;13.50;54.20;;;;;;4159898;28;20133;-89
2023/02/12 11:58:19;;;;;;;3.60;3.50;;;13.90;59.20;;;;;;4164557;28;20117;-89
2023/02/12 12:00:52;;;;;;;4.15;4.05;;;14.10;52.30;;;;;;4175951;28;20079;-88
2023/02/12 12:03:26;;;;;;;3.38;3.28;;;14.20;53.80;;;;;;4170660;28;20256;-89
2023/02/12 12:05:53;;;;;;;4.32;4.22;;;13.70;54.10;;;;;;4177821;28;20051;-89
2023/02/12 12:08:48;;;;;;;5.38;5.28;;;13.50;55.30;;;;;;4162039;28;20360;-89
2023/02/12 12:11:15;;;;;;;5.65;5.30;;;13.10;54.20;;;;;;4175152;28;20383;-89
2023/02/12 12:13:49;;;;;;;5.65;5.45;;;13.00;55.30;;;;;;4163275;28;20156;-89
2023/02/12 12:22:04;;;;;;;6.00;5.70;;;13.40;54.80;;;;;;4163429;28;20072;-88
2023/02/12 12:24:57;;;;;;;6.65;6.30;;;13.30;54.90;;;;;;4172291;28;20051;-88
2023/02/12 12:30:32;;;;;;;7.25;7.05;;;13.30;56.10;;;;;;4162747;28;20049;-88
2023/02/12 12:32:58;;;;;;;6.80;6.50;;;13.40;56.70;;;;;;4159194;28;20356;-88